createdAt,value
2022-08-01T00:03:44.515Z,54.66
2022-08-01T00:06:20.456Z,54.75
2022-08-01T00:17:50.398Z,55.47
2022-08-01T00:21:30.728Z,55.00
2022-08-01T00:29:05.188Z,55.62
2022-08-01T00:54:10.823Z,56.68
2022-08-01T01:01:20.504Z,55.96
2022-08-01T01:04:12.673Z,55.72
2022-08-01T01:07:58.790Z,55.88
2022-08-01T01:11:06.695Z,56.39
2022-08-01T01:15:09.773Z,55.94
2022-08-01T01:19:07.580Z,55.93
2022-08-01T01:22:35.287Z,56.24
2022-08-01T01:25:42.071Z,56.72
2022-08-01T01:29:20.220Z,56.31
2022-08-01T01:33:11.135Z,56.19
2022-08-01T01:40:19.306Z,56.83
2022-08-01T01:47:26.151Z,56.94
2022-08-01T01:54:30.585Z,56.98
2022-08-01T01:57:39.647Z,57.25
2022-08-01T02:01:15.359Z,57.42
2022-08-01T02:05:20.091Z,58.17
2022-08-01T02:09:07.153Z,58.87
2022-08-01T02:15:28.410Z,60.52
2022-08-01T02:19:17.074Z,60.64
2022-08-01T02:22:59.461Z,61.92
2022-08-01T02:26:17.270Z,61.67
2022-08-01T02:29:39.491Z,62.09
2022-08-01T02:36:50.542Z,61.58
2022-08-01T02:46:58.468Z,62.00
2022-08-01T02:50:07.463Z,62.50
2022-08-01T02:58:00.885Z,61.91
2022-08-01T03:04:41.777Z,62.47
2022-08-01T03:17:08.782Z,62.58
2022-08-01T03:20:37.148Z,62.23
2022-08-01T03:28:02.949Z,62.18
2022-08-01T03:31:23.874Z,62.01
2022-08-01T03:34:27.093Z,61.81
2022-08-01T03:38:20.282Z,62.72
2022-08-01T03:50:28.483Z,62.33
2022-08-01T03:58:16.701Z,62.02
2022-08-01T04:04:56.701Z,62.69
2022-08-01T04:16:50.317Z,62.10
2022-08-01T04:43:23.260Z,62.48
2022-08-01T04:46:41.681Z,62.23
2022-08-01T04:53:40.628Z,62.60
2022-08-01T04:57:32.525Z,62.07
2022-08-01T05:00:41.934Z,62.24
2022-08-01T05:12:20.263Z,62.42
2022-08-01T07:04:00.780Z,57.75
2022-08-01T07:25:52.704Z,55.61
2022-08-01T07:28:20.821Z,54.52
2022-08-01T07:30:48.578Z,54.75
2022-08-01T07:33:16.682Z,55.03
2022-08-01T07:35:44.551Z,53.99
2022-08-01T07:38:12.964Z,53.74
2022-08-01T07:40:42.379Z,54.38
2022-08-01T07:43:38.906Z,54.01
2022-08-01T07:57:08.759Z,43.24
2022-08-01T08:08:03.809Z,43.22
2022-08-01T08:10:55.740Z,40.58
2022-08-01T08:13:24.374Z,40.14
2022-08-01T08:15:55.049Z,39.95
2022-08-01T08:18:23.320Z,40.05
2022-08-01T09:47:40.958Z,45.97
2022-08-01T09:50:11.812Z,43.71
2022-08-01T09:52:41.152Z,42.38
2022-08-01T09:55:10.129Z,37.12
2022-08-01T10:17:04.925Z,25.84
2022-08-01T10:50:58.442Z,25.20
2022-08-01T10:53:31.748Z,27.50
2022-08-01T10:56:13.047Z,29.55
2022-08-01T10:58:45.825Z,31.65
2022-08-01T11:01:26.249Z,31.28
2022-08-01T11:04:11.422Z,29.66
2022-08-01T11:14:12.276Z,27.03
2022-08-01T11:16:41.891Z,28.39
2022-08-01T11:19:11.688Z,29.73
2022-08-01T11:22:05.013Z,29.86
2022-08-01T11:24:57.793Z,30.10
2022-08-01T11:27:29.314Z,29.99
2022-08-01T11:30:31.154Z,30.56
2022-08-01T11:33:10.985Z,29.00
2022-08-01T11:36:00.756Z,29.46
2022-08-01T11:38:31.160Z,29.63
2022-08-01T11:41:15.002Z,30.21
2022-08-01T11:43:57.510Z,30.87
2022-08-01T11:46:55.292Z,31.97
2022-08-01T11:49:50.072Z,32.85
2022-08-01T12:25:26.182Z,37.60
2022-08-01T12:27:56.498Z,37.50
2022-08-01T12:30:25.934Z,38.04
2022-08-01T12:32:56.875Z,37.04
2022-08-01T12:35:27.293Z,37.53
2022-08-01T12:37:57.831Z,38.46
2022-08-01T13:32:35.275Z,39.89
2022-08-01T16:37:35.467Z,36.18
2022-08-01T17:29:43.582Z,40.86
2022-08-01T17:32:13.088Z,40.57
2022-08-01T17:34:41.018Z,41.89
2022-08-01T17:37:09.994Z,41.90
2022-08-01T17:39:39.324Z,42.76
2022-08-01T18:09:32.895Z,47.42
2022-08-01T18:21:38.567Z,47.05
2022-08-01T18:24:09.457Z,46.00
2022-08-01T18:26:38.936Z,46.51
2022-08-01T18:29:07.545Z,45.65
2022-08-01T18:31:35.603Z,45.99
2022-08-01T18:34:03.749Z,45.58
2022-08-01T18:36:34.305Z,46.35
2022-08-01T18:39:05.561Z,47.97
2022-08-01T18:41:34.341Z,48.89
2022-08-01T18:44:07.922Z,49.28
2022-08-01T18:46:37.355Z,49.51
2022-08-01T18:49:06.416Z,48.92
2022-08-01T18:51:34.234Z,48.73
2022-08-01T18:54:02.326Z,49.56
2022-08-01T18:56:30.216Z,49.93
2022-08-01T19:11:33.145Z,51.79
2022-08-01T19:27:51.034Z,53.68
2022-08-01T19:30:20.191Z,53.69
2022-08-01T20:01:47.521Z,56.79
2022-08-01T20:04:16.870Z,56.83
2022-08-01T20:06:44.802Z,57.07
2022-08-01T20:09:13.895Z,57.41
2022-08-01T20:11:44.772Z,57.82
2022-08-01T20:14:14.835Z,58.25
2022-08-01T20:16:43.532Z,58.23
2022-08-01T20:19:13.227Z,58.40
2022-08-01T20:21:43.927Z,58.89
2022-08-01T20:34:43.065Z,59.07
2022-08-01T20:38:24.419Z,58.84
2022-08-01T20:45:54.415Z,59.55
2022-08-01T20:53:23.354Z,60.31
2022-08-01T21:01:00.228Z,60.23
2022-08-01T21:08:57.769Z,60.92
2022-08-01T21:12:07.646Z,62.04
2022-08-01T21:36:06.784Z,62.79
2022-08-01T21:39:56.909Z,63.51
2022-08-01T21:44:03.655Z,63.14
2022-08-01T21:47:03.791Z,63.46
2022-08-01T21:49:51.245Z,63.57
2022-08-01T21:53:11.547Z,63.22
2022-08-01T22:22:51.940Z,64.28
2022-08-01T22:25:59.045Z,64.62
2022-08-01T22:33:23.357Z,64.83
2022-08-01T22:37:57.486Z,65.24
2022-08-01T22:42:34.206Z,65.02
2022-08-01T22:46:27.855Z,65.05
2022-08-01T22:50:15.846Z,64.86
2022-08-01T23:20:56.689Z,66.29
2022-08-01T23:23:31.374Z,66.73
2022-08-01T23:26:02.159Z,66.51
2022-08-01T23:28:30.615Z,66.14
2022-08-01T23:31:00.653Z,66.46
2022-08-01T23:33:28.655Z,66.70
2022-08-01T23:35:58.494Z,66.77
2022-08-01T23:38:26.581Z,66.92
2022-08-01T23:40:55.539Z,66.78
2022-08-01T23:43:24.320Z,66.73
2022-08-01T23:46:04.246Z,66.93
2022-08-01T23:48:34.450Z,67.03
2022-08-01T23:51:05.090Z,66.87
2022-08-01T23:53:38.649Z,67.24
2022-08-01T23:56:08.303Z,67.28
2022-08-01T23:58:36.424Z,67.17
